Accueil
METAR-TAF:

METAR-TAF

Aéroports :

Kolding, Danemark

Vamdrup

latitude: 55-26N, longitude: 009-20E, altitude: 44 m

Observation

Le bulletin a été fait il y a 12 minutes, à 21:50 UTC
Vent 8 kt de sud/sud-ouest
Température 1°C
Humidité 93%
Pression 1004 hPa

METAR: EKVD 122150Z AUTO 20008KT //// ///////// 01/M00 Q1004

Heure: 23:02 (22:02 UTC)

Prévision

Le bulletin a été fait il y a 10 heures et 6 minutes, à 11:56 UTC
Prévision valable du 12 à 12 UTC au 12 à 17 UTC
Vent 10 kt de nord-ouest
Visibilité 10 km ou plus
Nuages épars à une hauteur de 2500 ft
Evoluant progressivement
du 12 à 14 UTC au 12 à 17 UTC
Vent 10 kt de ouest

TAF: EKVD 121156Z 1212/1217 31010KT 9999 SCT025 BECMG 1214/1217 26010KT

Observations et prévisions météorologiques de plus de 4000 aéroports (messages METAR et TAF).

Les stations disponibles sont représentées par des disques jaunes et rouges sur la carte.

Passer la souris dessus pour voir le nom de la station.

Cliquer dessus pour voir les observations et prévisions météorologiques.

Pour changer de carte: cliquez sur les boutons verts avec une croix noire pour zoomer, sur le bouton vert avec un tiret pour effectuer un zoom arrière, ou sur les flèches vertes pour les cartes adjacentes.


METAR-TAF: